Time;durP1;ratioP1;P1;durP2;ratioP2;P2;SDS_P1;SDS_P2;PMS_P1;PMS_P2;Temp;Humidity;BMP_temperature;BMP_pressure;BME280_temperature;BME280_humidity;BME280_pressure;Samples;Min_cycle;Max_cycle;Signal;HPM_P1;HPM_P2
2023/08/28 00:00:13;;;;;;;9.40;6.50;;;;;;;22.07;100.00;98992.44;109444;1251;73071;-74
2023/08/28 00:02:42;;;;;;;6.90;5.60;;;;;;;22.05;100.00;98993.88;109422;1251;60454;-74
2023/08/28 00:05:10;;;;;;;12.30;5.60;;;;;;;22.03;100.00;98995.73;109394;1251;60077;-74
2023/08/28 00:07:37;;;;;;;8.10;6.00;;;;;;;22.00;100.00;98995.46;109435;1251;74658;-74
2023/08/28 00:10:05;;;;;;;9.50;5.90;;;;;;;21.97;100.00;98998.09;109402;1251;70307;-74
2023/08/28 00:12:36;;;;;;;9.90;6.60;;;;;;;21.94;100.00;99005.81;109424;1252;72621;-74
2023/08/28 00:15:04;;;;;;;8.40;6.00;;;;;;;21.93;100.00;99009.67;109393;1252;60546;-74
2023/08/28 00:17:31;;;;;;;14.00;7.10;;;;;;;21.92;100.00;99008.85;109403;1251;59996;-74
2023/08/28 00:19:59;;;;;;;10.80;6.20;;;;;;;21.90;100.00;99014.03;109414;1251;74656;-74
2023/08/28 00:22:26;;;;;;;9.60;6.10;;;;;;;21.88;100.00;99015.55;109427;1251;71164;-74
2023/08/28 00:24:54;;;;;;;10.30;5.90;;;;;;;21.87;100.00;99012.98;109400;1251;72319;-74
2023/08/28 00:27:21;;;;;;;9.90;5.90;;;;;;;21.85;100.00;99010.35;109416;1251;59157;-74
2023/08/28 00:29:49;;;;;;;12.20;6.90;;;;;;;21.84;100.00;99003.66;109421;1251;58953;-74
2023/08/28 00:32:16;;;;;;;7.80;5.90;;;;;;;21.82;100.00;98994.71;109266;1251;73364;-74
2023/08/28 00:34:44;;;;;;;6.80;5.50;;;;;;;21.79;100.00;98987.83;109385;1251;69623;-74
2023/08/28 00:37:14;;;;;;;10.60;6.40;;;;;;;21.76;100.00;98993.12;109311;1251;73098;-74
2023/08/28 00:39:41;;;;;;;8.30;5.90;;;;;;;21.73;100.00;98991.59;109423;1251;59331;-74
2023/08/28 00:42:09;;;;;;;6.40;5.80;;;;;;;21.71;100.00;98996.40;109426;1251;60065;-74
2023/08/28 00:44:36;;;;;;;8.90;6.00;;;;;;;21.68;100.00;98994.36;109312;1251;72466;-74
2023/08/28 00:47:04;;;;;;;7.80;6.20;;;;;;;21.66;100.00;98997.90;109387;1250;70103;-74
2023/08/28 00:49:32;;;;;;;7.00;6.30;;;;;;;21.64;100.00;98992.95;109223;1251;71340;-74
2023/08/28 00:52:00;;;;;;;6.50;5.90;;;;;;;21.62;100.00;98995.08;108912;1251;359683;-73
2023/08/28 00:54:27;;;;;;;10.60;6.50;;;;;;;21.59;100.00;98994.10;109440;1251;58896;-74
2023/08/28 00:56:55;;;;;;;9.30;6.60;;;;;;;21.57;100.00;98996.96;109338;1251;74669;-73
2023/08/28 00:59:23;;;;;;;7.20;6.50;;;;;;;21.54;100.00;98996.50;109414;1251;71272;-74
2023/08/28 01:01:50;;;;;;;7.50;6.00;;;;;;;21.54;100.00;99002.58;109358;1251;72672;-74
2023/08/28 01:04:18;;;;;;;9.40;6.00;;;;;;;21.51;100.00;98999.19;109402;1252;60158;-73
2023/08/28 01:06:56;;;;;;;8.60;6.70;;;;;;;21.50;100.00;99002.38;109427;1251;58938;-74
2023/08/28 01:09:49;;;;;;;10.00;6.60;;;;;;;21.48;100.00;99003.25;109365;1251;73439;-74
2023/08/28 01:12:26;;;;;;;8.80;6.20;;;;;;;21.47;100.00;99010.89;109277;1251;70914;-74
2023/08/28 01:15:06;;;;;;;9.00;6.70;;;;;;;21.45;100.00;99005.63;109299;1254;71794;-74
2023/08/28 01:17:33;;;;;;;8.10;6.30;;;;;;;21.45;100.00;99004.05;109420;1251;59073;-73
2023/08/28 01:20:01;;;;;;;14.80;6.90;;;;;;;21.44;100.00;99004.70;109433;1251;60018;-74
2023/08/28 01:22:31;;;;;;;8.20;6.60;;;;;;;21.43;100.00;99002.75;109316;1251;72770;-74
2023/08/28 01:25:08;;;;;;;10.70;7.40;;;;;;;21.41;100.00;99007.95;109343;1251;69488;-74
2023/08/28 01:27:37;;;;;;;8.60;6.90;;;;;;;21.38;100.00;99006.76;109331;1251;70872;-73
2023/08/28 01:30:09;;;;;;;12.10;7.40;;;;;;;21.37;100.00;99006.85;109363;1251;61732;-73
2023/08/28 01:32:38;;;;;;;9.20;6.50;;;;;;;21.35;100.00;99005.47;109330;1251;60086;-74
2023/08/28 01:35:11;;;;;;;10.70;7.10;;;;;;;21.32;100.00;99008.18;109396;1251;73385;-74
2023/08/28 01:38:09;;;;;;;8.20;7.20;;;;;;;21.31;100.00;99011.84;109271;1251;71270;-74
2023/08/28 01:40:57;;;;;;;9.10;7.10;;;;;;;21.30;100.00;99011.23;109400;1252;71397;-74
2023/08/28 01:43:26;;;;;;;11.40;6.90;;;;;;;21.29;100.00;99014.17;109321;1251;61678;-74
2023/08/28 01:45:53;;;;;;;9.40;7.30;;;;;;;21.28;100.00;99015.54;109253;1251;60473;-73
2023/08/28 01:48:21;;;;;;;8.70;6.60;;;;;;;21.26;100.00;99009.95;109312;1251;75095;-74
2023/08/28 01:50:48;;;;;;;10.00;6.50;;;;;;;21.25;100.00;99005.30;109434;1251;70764;-74
2023/08/28 01:53:17;;;;;;;9.00;7.70;;;;;;;21.22;100.00;99006.03;109375;1251;72635;-74
2023/08/28 01:55:44;;;;;;;9.60;7.50;;;;;;;21.20;100.00;99003.36;109309;1251;60661;-74
2023/08/28 01:58:12;;;;;;;11.10;7.70;;;;;;;21.18;100.00;99002.29;109339;1251;59304;-74
2023/08/28 02:00:40;;;;;;;10.90;7.80;;;;;;;21.16;100.00;99007.30;109431;1251;74602;-75
2023/08/28 02:03:09;;;;;;;11.90;8.30;;;;;;;21.13;100.00;99009.09;109445;1251;70800;-74
2023/08/28 02:05:37;;;;;;;8.90;7.80;;;;;;;21.12;100.00;99013.68;109403;1251;72424;-75
2023/08/28 02:08:05;;;;;;;16.60;7.00;;;;;;;21.12;100.00;99018.30;109398;1251;63018;-74
2023/08/28 02:10:32;;;;;;;10.50;7.60;;;;;;;21.11;100.00;99014.70;109391;1251;59177;-74
2023/08/28 02:13:00;;;;;;;10.70;7.40;;;;;;;21.09;100.00;99011.92;109427;1251;74439;-74
2023/08/28 02:15:28;;;;;;;11.20;8.70;;;;;;;21.09;100.00;99003.62;109465;1251;69770;-74
2023/08/28 02:17:55;;;;;;;12.30;8.90;;;;;;;21.08;100.00;99001.87;109426;1251;71058;-74
2023/08/28 02:20:23;;;;;;;9.60;8.00;;;;;;;21.08;100.00;98997.77;109403;1252;60904;-74
2023/08/28 02:22:50;;;;;;;10.40;8.10;;;;;;;21.07;100.00;98994.66;109318;1251;58941;-74
2023/08/28 02:25:20;;;;;;;11.00;8.70;;;;;;;21.05;100.00;98993.58;109399;1251;74616;-73
2023/08/28 02:27:51;;;;;;;15.20;9.30;;;;;;;21.04;100.00;98991.17;109416;1251;70782;-74
2023/08/28 02:30:19;;;;;;;13.70;8.70;;;;;;;21.04;100.00;98991.52;109384;1251;72259;-73
2023/08/28 02:32:46;;;;;;;11.10;9.00;;;;;;;21.03;100.00;98991.61;109405;1251;60474;-73
2023/08/28 02:35:14;;;;;;;14.80;8.10;;;;;;;21.02;100.00;98989.77;109397;1251;59071;-73
2023/08/28 02:37:42;;;;;;;13.10;8.60;;;;;;;21.01;100.00;98991.10;109436;1251;73705;-73
2023/08/28 02:40:10;;;;;;;15.00;9.60;;;;;;;21.00;100.00;98992.42;109348;1251;70080;-73
2023/08/28 02:42:38;;;;;;;15.60;9.00;;;;;;;20.98;100.00;98992.61;109413;1251;72723;-73
2023/08/28 02:45:06;;;;;;;13.70;9.40;;;;;;;20.97;100.00;98993.77;109399;1251;61648;-73
2023/08/28 02:47:36;;;;;;;14.30;10.00;;;;;;;20.96;100.00;98990.09;109355;1251;59976;-73
2023/08/28 02:50:04;;;;;;;12.50;9.90;;;;;;;20.95;100.00;98986.09;109341;1251;74626;-74
2023/08/28 02:52:32;;;;;;;11.30;8.80;;;;;;;20.94;100.00;98986.20;109317;1251;71795;-73
2023/08/28 02:55:00;;;;;;;15.30;9.10;;;;;;;20.93;100.00;98991.58;109303;1251;72692;-74
2023/08/28 02:57:27;;;;;;;12.60;8.70;;;;;;;20.93;100.00;98988.56;109395;1251;60381;-73
2023/08/28 02:59:55;;;;;;;13.60;9.70;;;;;;;20.91;100.00;98989.98;109406;1251;59992;-73
2023/08/28 03:02:22;;;;;;;12.30;9.70;;;;;;;20.91;100.00;98989.66;109337;1251;75072;-74
2023/08/28 03:04:50;;;;;;;14.60;10.20;;;;;;;20.91;100.00;98993.21;109381;1251;69634;-73
2023/08/28 03:07:17;;;;;;;13.90;9.40;;;;;;;20.91;100.00;98991.26;109415;1251;71622;-73
2023/08/28 03:09:45;;;;;;;11.60;9.20;;;;;;;20.92;100.00;98989.06;109377;1251;60715;-74
2023/08/28 03:12:13;;;;;;;14.50;9.30;;;;;;;20.91;100.00;98980.19;109391;1251;60046;-74
2023/08/28 03:14:40;;;;;;;14.60;10.70;;;;;;;20.91;100.00;98985.70;109458;1251;73423;-74
2023/08/28 03:17:08;;;;;;;14.00;9.80;;;;;;;20.92;100.00;98984.91;109420;1251;70054;-74
2023/08/28 03:19:37;;;;;;;13.30;9.90;;;;;;;20.93;100.00;98981.58;109332;1251;72464;-74
2023/08/28 03:22:04;;;;;;;11.50;9.30;;;;;;;20.95;100.00;98983.23;109429;1251;60483;-74
2023/08/28 03:24:32;;;;;;;14.30;9.20;;;;;;;20.96;100.00;98979.39;109442;1251;58997;-74
2023/08/28 03:27:01;;;;;;;14.70;10.00;;;;;;;20.95;100.00;98974.27;109431;1251;74646;-73
2023/08/28 03:29:28;;;;;;;16.90;10.20;;;;;;;20.97;100.00;98975.77;109326;1251;71149;-73
2023/08/28 03:31:56;;;;;;;11.50;9.20;;;;;;;20.99;100.00;98975.92;109422;1251;73147;-74
2023/08/28 03:34:24;;;;;;;14.50;9.30;;;;;;;21.02;100.00;98978.41;109404;1251;60442;-73
2023/08/28 03:36:51;;;;;;;12.70;9.90;;;;;;;21.03;100.00;98977.93;109435;1251;58845;-74
2023/08/28 03:39:19;;;;;;;17.50;10.10;;;;;;;21.04;100.00;98971.21;109330;1251;74718;-73
2023/08/28 03:41:46;;;;;;;13.90;9.80;;;;;;;21.06;100.00;98972.98;109445;1251;70139;-74
2023/08/28 03:44:13;;;;;;;13.50;9.60;;;;;;;21.10;100.00;98973.19;109418;1252;72436;-73
2023/08/28 03:46:41;;;;;;;15.90;10.20;;;;;;;21.13;100.00;98973.98;109348;1251;61635;-74
2023/08/28 03:49:10;;;;;;;23.40;10.50;;;;;;;21.16;100.00;98972.12;109374;1251;60519;-73
2023/08/28 03:51:37;;;;;;;20.50;10.30;;;;;;;21.19;100.00;98974.74;109450;1251;72807;-73
2023/08/28 03:54:10;;;;;;;19.80;9.80;;;;;;;21.22;100.00;98976.79;109415;1253;71134;-74
2023/08/28 03:56:37;;;;;;;15.40;9.80;;;;;;;21.26;100.00;98975.77;109316;1253;72706;-73
2023/08/28 03:59:06;;;;;;;17.70;10.90;;;;;;;21.29;100.00;98972.02;109391;1251;60377;-74
2023/08/28 04:01:34;;;;;;;15.40;10.40;;;;;;;21.33;100.00;98968.30;109444;1251;60086;-73
2023/08/28 04:04:01;;;;;;;15.50;10.00;;;;;;;21.38;100.00;98966.48;109382;1251;73388;-73
2023/08/28 04:06:29;;;;;;;19.30;10.60;;;;;;;21.44;100.00;98965.80;109408;1251;71770;-73
2023/08/28 04:08:56;;;;;;;15.40;9.50;;;;;;;21.50;100.00;98963.65;109409;1252;73626;-74
2023/08/28 04:11:24;;;;;;;20.30;9.60;;;;;;;21.57;100.00;98960.95;109344;1251;60147;-74
2023/08/28 04:13:51;;;;;;;19.00;10.30;;;;;;;21.62;100.00;98960.67;109418;1251;59999;-74
2023/08/28 04:16:19;;;;;;;11.80;9.40;;;;;;;21.67;100.00;98955.92;109422;1251;74766;-74
2023/08/28 04:18:47;;;;;;;17.20;9.30;;;;;;;21.73;100.00;98956.45;109430;1251;70777;-73
2023/08/28 04:21:15;;;;;;;16.90;9.30;;;;;;;21.81;100.00;98952.85;109404;1252;73149;-74
2023/08/28 04:23:42;;;;;;;12.20;8.60;;;;;;;21.91;100.00;98953.08;109423;1251;60379;-75
2023/08/28 04:26:10;;;;;;;16.30;8.30;;;;;;;22.02;100.00;98954.56;109347;1251;59188;-74
2023/08/28 04:28:37;;;;;;;14.30;8.80;;;;;;;22.15;100.00;98948.00;108603;1251;1002425;-73
2023/08/28 04:31:08;;;;;;;13.80;8.70;;;;;;;22.29;100.00;98944.79;109440;1251;70732;-74
2023/08/28 04:33:36;;;;;;;12.20;8.80;;;;;;;22.42;100.00;98943.73;109329;1251;73137;-74
2023/08/28 04:36:04;;;;;;;18.80;9.80;;;;;;;22.55;100.00;98949.21;109385;1251;60426;-74
2023/08/28 04:38:31;;;;;;;18.00;10.10;;;;;;;22.63;100.00;98948.25;109447;1251;58946;-74
2023/08/28 04:40:59;;;;;;;19.00;9.70;;;;;;;22.70;100.00;98948.00;109399;1255;74607;-73
2023/08/28 04:43:26;;;;;;;21.70;11.70;;;;;;;22.78;100.00;98947.74;109372;1251;71551;-73
2023/08/28 04:45:53;;;;;;;17.40;11.60;;;;;;;22.86;100.00;98949.81;109408;1252;72623;-74
2023/08/28 04:48:21;;;;;;;21.30;11.30;;;;;;;22.94;100.00;98943.49;109428;1251;60421;-74
2023/08/28 04:50:49;;;;;;;25.90;12.00;;;;;;;23.04;100.00;98943.52;109404;1251;60019;-74
2023/08/28 04:53:16;;;;;;;27.90;12.30;;;;;;;23.14;100.00;98947.61;109352;1251;73400;-74
2023/08/28 04:55:43;;;;;;;26.30;13.10;;;;;;;23.23;100.00;98950.06;109437;1251;71230;-74
2023/08/28 04:58:11;;;;;;;16.30;10.00;;;;;;;23.32;100.00;98947.79;109372;1251;72644;-73
2023/08/28 05:00:39;;;;;;;19.40;9.80;;;;;;;23.44;100.00;98944.30;109432;1252;60426;-74
2023/08/28 05:03:08;;;;;;;25.70;7.80;;;;;;;23.55;100.00;98942.89;109386;1251;60466;-74
2023/08/28 05:05:36;;;;;;;15.40;8.90;;;;;;;23.66;100.00;98932.51;109404;1251;73429;-74
2023/08/28 05:08:05;;;;;;;16.60;6.70;;;;;;;23.80;100.00;98932.23;109421;1252;69980;-75
2023/08/28 05:10:33;;;;;;;15.50;6.70;;;;;;;23.92;100.00;98924.04;109430;1253;71130;-74
2023/08/28 05:13:00;;;;;;;15.60;6.80;;;;;;;24.03;100.00;98916.71;109331;1253;59308;-74
2023/08/28 05:15:28;;;;;;;21.90;8.50;;;;;;;24.12;100.00;98917.96;109384;1251;60024;-74
2023/08/28 05:17:56;;;;;;;19.30;7.80;;;;;;;24.19;100.00;98918.16;109446;1255;74657;-73
2023/08/28 05:20:23;;;;;;;25.30;10.00;;;;;;;24.28;100.00;98914.04;109433;1251;71342;-73
2023/08/28 05:22:51;;;;;;;19.20;8.80;;;;;;;24.38;100.00;98912.14;109436;1252;72662;-74
2023/08/28 05:25:18;;;;;;;13.20;7.20;;;;;;;24.46;100.00;98905.50;109423;1251;60545;-74
2023/08/28 05:27:46;;;;;;;8.50;5.80;;;;;;;24.55;100.00;98901.27;109428;1251;59511;-73
2023/08/28 05:30:13;;;;;;;13.20;6.30;;;;;;;24.63;100.00;98902.59;109391;1251;73358;-73
2023/08/28 05:32:41;;;;;;;13.00;6.20;;;;;;;24.73;100.00;98905.45;109391;1251;70777;-74
2023/08/28 05:35:09;;;;;;;13.30;6.60;;;;;;;24.83;100.00;98904.80;109408;1252;63824;-74
2023/08/28 05:37:37;;;;;;;12.40;6.90;;;;;;;24.94;100.00;98905.15;109350;1252;60168;-74
2023/08/28 05:40:05;;;;;;;11.70;6.60;;;;;;;25.03;100.00;98905.45;109421;1252;60016;-75
2023/08/28 05:42:36;;;;;;;26.40;11.50;;;;;;;25.12;100.00;98905.05;109357;1251;73446;-74
2023/08/28 05:45:04;;;;;;;12.00;7.10;;;;;;;25.18;100.00;98904.73;109438;1251;70166;-74
2023/08/28 05:47:32;;;;;;;14.30;6.40;;;;;;;25.23;100.00;98904.39;109358;1253;72675;-74
2023/08/28 05:50:00;;;;;;;13.70;6.60;;;;;;;25.29;100.00;98906.22;109424;1252;60075;-74
2023/08/28 05:52:28;;;;;;;10.10;6.00;;;;;;;25.33;100.00;98901.76;109346;1253;59471;-74
2023/08/28 05:54:55;;;;;;;16.30;6.30;;;;;;;25.42;100.00;98905.49;109417;1251;72722;-74
2023/08/28 05:57:23;;;;;;;11.80;6.00;;;;;;;25.52;100.00;98906.97;109217;1251;70820;-74
2023/08/28 05:59:51;;;;;;;10.50;6.10;;;;;;;25.61;100.00;98898.98;109417;1251;71403;-74
2023/08/28 06:02:19;;;;;;;10.80;5.90;;;;;;;25.68;100.00;98897.48;109410;1253;58937;-74
2023/08/28 06:04:51;;;;;;;10.80;5.80;;;;;;;25.76;100.00;98895.38;109393;1251;60096;-74
2023/08/28 06:07:19;;;;;;;9.70;6.20;;;;;;;25.85;100.00;98893.90;109460;1251;65768;-74
2023/08/28 06:09:47;;;;;;;9.10;5.80;;;;;;;25.95;100.00;98884.39;109416;1251;71619;-74
2023/08/28 06:12:14;;;;;;;14.40;6.10;;;;;;;26.04;100.00;98884.82;109354;1257;62441;-75
2023/08/28 06:14:42;;;;;;;9.60;6.10;;;;;;;26.14;100.00;98880.41;109446;1251;60108;-74
2023/08/28 06:17:11;;;;;;;13.30;5.70;;;;;;;26.23;100.00;98879.94;109332;1251;59183;-74
2023/08/28 06:19:41;;;;;;;11.80;5.80;;;;;;;26.35;100.00;98883.27;109373;1251;73765;-74
2023/08/28 06:22:09;;;;;;;17.80;5.60;;;;;;;26.50;100.00;98883.45;109461;1251;71775;-74
2023/08/28 06:24:36;;;;;;;9.60;6.00;;;;;;;26.61;100.00;98879.29;109405;1251;72120;-74
2023/08/28 06:27:04;;;;;;;24.90;5.80;;;;;;;26.71;100.00;98881.69;109407;1251;59317;-74
2023/08/28 06:29:31;;;;;;;12.00;6.30;;;;;;;26.78;100.00;98883.95;109399;1251;60569;-73
2023/08/28 06:31:59;;;;;;;10.00;5.60;;;;;;;26.85;100.00;98882.61;109319;1251;74585;-73
2023/08/28 06:34:26;;;;;;;14.00;6.20;;;;;;;26.94;100.00;98883.00;109425;1251;70367;-74
2023/08/28 06:36:54;;;;;;;20.00;5.80;;;;;;;27.04;100.00;98881.48;109441;1251;72449;-74
2023/08/28 06:39:21;;;;;;;13.90;5.80;;;;;;;27.14;100.00;98880.96;109385;1252;58959;-74
2023/08/28 06:41:49;;;;;;;14.60;5.60;;;;;;;27.25;100.00;98872.64;109423;1251;60371;-75
2023/08/28 06:44:19;;;;;;;16.90;5.60;;;;;;;27.39;100.00;98875.91;109372;1251;74633;-74
2023/08/28 06:46:47;;;;;;;14.90;5.40;;;;;;;27.52;100.00;98872.87;109409;1251;70763;-75
2023/08/28 06:49:14;;;;;;;18.60;5.50;;;;;;;27.66;100.00;98874.13;109381;1251;72591;-73
2023/08/28 06:51:42;;;;;;;12.70;5.20;;;;;;;27.79;100.00;98870.90;109415;1251;60207;-74
2023/08/28 06:54:09;;;;;;;18.60;5.50;;;;;;;27.91;100.00;98866.91;109419;1251;59964;-75
2023/08/28 06:56:36;;;;;;;20.50;5.50;;;;;;;28.04;100.00;98866.80;109444;1251;73389;-74
2023/08/28 06:59:04;;;;;;;21.90;5.20;;;;;;;28.18;100.00;98864.64;109430;1251;69834;-73
2023/08/28 07:01:31;;;;;;;15.80;5.20;;;;;;;28.29;100.00;98859.75;109367;1251;63910;-75
2023/08/28 07:03:59;;;;;;;15.80;5.10;;;;;;;28.41;100.00;98864.86;109458;1251;59442;-74
2023/08/28 07:06:26;;;;;;;13.10;5.00;;;;;;;28.58;100.00;98865.23;109415;1251;59413;-74
2023/08/28 07:08:54;;;;;;;11.80;5.20;;;;;;;28.72;100.00;98862.44;109410;1251;64466;-74
2023/08/28 07:11:22;;;;;;;7.40;4.80;;;;;;;28.84;100.00;98861.36;109434;1255;60997;-73
2023/08/28 07:13:49;;;;;;;15.20;5.00;;;;;;;28.98;100.00;98856.33;109434;1251;62533;-75
2023/08/28 07:16:17;;;;;;;10.70;5.10;;;;;;;29.07;100.00;98856.83;109429;1251;59262;-75
2023/08/28 07:18:44;;;;;;;13.50;5.70;;;;;;;29.15;100.00;98855.64;109468;1251;58986;-73
2023/08/28 07:21:12;;;;;;;8.60;5.00;;;;;;;29.25;100.00;98859.71;109440;1250;65769;-75
2023/08/28 07:23:39;;;;;;;13.40;4.90;;;;;;;29.38;100.00;98858.40;109437;1251;61034;-75
2023/08/28 07:26:07;;;;;;;13.30;4.40;;;;;;;29.55;100.00;98863.35;109404;1251;63765;-74
2023/08/28 07:28:34;;;;;;;8.10;4.60;;;;;;;29.73;100.00;98860.43;109442;1253;58984;-75
2023/08/28 07:31:03;;;;;;;11.90;4.30;;;;;;;29.89;100.00;98857.47;109440;1251;59093;-75
2023/08/28 07:33:30;;;;;;;8.60;4.20;;;;;;;30.04;100.00;98855.98;109407;1251;65880;-74
2023/08/28 07:36:00;;;;;;;9.60;4.00;;;;;;;30.19;100.00;98851.80;109444;1251;62261;-74
2023/08/28 07:38:28;;;;;;;11.70;4.00;;;;;;;30.34;100.00;98848.57;109431;1251;63190;-74
2023/08/28 07:40:55;;;;;;;12.10;4.30;;;;;;;30.48;100.00;98840.48;109427;1254;59293;-75
2023/08/28 07:43:23;;;;;;;13.20;4.00;;;;;;;30.59;100.00;98835.05;109433;1251;59207;-74
2023/08/28 07:45:50;;;;;;;14.20;4.30;;;;;;;30.70;100.00;98834.31;109445;1252;64453;-75
2023/08/28 07:48:18;;;;;;;14.40;4.70;;;;;;;30.79;100.00;98833.00;109422;1253;61019;-74
2023/08/28 07:50:45;;;;;;;13.20;4.30;;;;;;;30.84;100.00;98827.98;109405;1251;62604;-75
2023/08/28 07:53:13;;;;;;;12.90;4.40;;;;;;;30.87;100.00;98820.75;109425;1253;58979;-75
2023/08/28 07:55:40;;;;;;;8.50;3.80;;;;;;;30.89;100.00;98822.43;109425;1251;59333;-74
2023/08/28 07:58:09;;;;;;;8.00;3.70;;;;;;;30.92;100.00;98826.11;109435;1251;64611;-74
2023/08/28 08:00:38;;;;;;;11.80;5.20;;;;;;;30.96;100.00;98825.20;109416;1251;62227;-75
2023/08/28 08:03:06;;;;;;;16.50;4.50;;;;;;;31.00;100.00;98827.07;109409;1251;62539;-75
2023/08/28 08:05:34;;;;;;;19.40;4.30;;;;;;;31.04;100.00;98826.16;109393;1252;59029;-75
2023/08/28 08:08:01;;;;;;;9.30;4.70;;;;;;;31.07;100.00;98820.80;109439;1252;59008;-75
2023/08/28 08:10:29;;;;;;;10.60;4.30;;;;;;;31.11;100.00;98821.77;109416;1251;64454;-75
2023/08/28 08:12:56;;;;;;;7.00;3.80;;;;;;;31.17;100.00;98819.95;109451;1251;62138;-74
2023/08/28 08:15:24;;;;;;;8.60;4.20;;;;;;;31.25;100.00;98821.56;109376;1251;63815;-74
2023/08/28 08:17:52;;;;;;;10.00;4.70;;;;;;;31.34;100.00;98825.23;109426;1251;59314;-74
2023/08/28 08:20:20;;;;;;;7.10;4.20;;;;;;;31.41;100.00;98828.48;109443;1251;59052;-75
2023/08/28 08:22:47;;;;;;;7.00;4.30;;;;;;;31.43;100.00;98828.73;109454;1251;66278;-75
2023/08/28 08:25:15;;;;;;;9.00;4.30;;;;;;;31.45;100.00;98828.98;109412;1251;61063;-75
2023/08/28 08:27:44;;;;;;;10.90;4.70;;;;;;;31.46;100.00;98831.45;109419;1251;62459;-74
2023/08/28 08:30:13;;;;;;;10.10;4.60;;;;;;;31.42;100.00;98832.58;109416;1251;59453;-74
2023/08/28 08:32:43;;;;;;;13.40;4.60;;;;;;;31.42;100.00;98830.90;109462;1253;59328;-75
2023/08/28 08:35:12;;;;;;;11.50;4.10;;;;;;;31.46;100.00;98829.23;109444;1251;66408;-74
2023/08/28 08:37:41;;;;;;;12.70;4.20;;;;;;;31.54;100.00;98826.31;109469;1251;62272;-75
2023/08/28 08:40:12;;;;;;;11.50;4.40;;;;;;;31.62;100.00;98823.98;109439;1253;62438;-75
2023/08/28 08:42:39;;;;;;;10.70;4.60;;;;;;;31.69;100.00;98823.16;109427;1251;59128;-75
2023/08/28 08:45:08;;;;;;;10.50;4.50;;;;;;;31.75;100.00;98823.88;109426;1251;59287;-75
2023/08/28 08:47:37;;;;;;;7.60;5.00;;;;;;;31.78;100.00;98822.13;109446;1251;65763;-74
2023/08/28 08:50:06;;;;;;;8.30;4.60;;;;;;;31.77;100.00;98820.07;109433;1251;62191;-76
2023/08/28 08:52:36;;;;;;;12.70;4.80;;;;;;;31.80;100.00;98820.41;109155;1251;66877;-74
2023/08/28 08:55:10;;;;;;;18.70;5.70;;;;;;;31.92;100.00;98819.59;109381;1251;59169;-74
2023/08/28 08:57:37;;;;;;;20.30;7.70;;;;;;;32.04;100.00;98820.32;109370;1251;59462;-74
2023/08/28 09:00:14;;;;;;;17.10;7.60;;;;;;;32.10;100.00;98820.04;109244;1251;64732;-75
2023/08/28 09:02:45;;;;;;;13.30;5.60;;;;;;;32.09;100.00;98820.04;109464;1251;62142;-74
2023/08/28 09:05:14;;;;;;;8.00;4.50;;;;;;;32.11;100.00;98819.79;109370;1251;74181;-74
2023/08/28 09:07:43;;;;;;;9.20;5.30;;;;;;;32.18;100.00;98826.16;109397;1251;59263;-74
2023/08/28 09:10:12;;;;;;;16.00;5.80;;;;;;;32.28;100.00;98824.64;109409;1251;59283;-75
2023/08/28 09:12:39;;;;;;;12.60;4.50;;;;;;;32.33;100.00;98827.09;109408;1251;64428;-74
2023/08/28 09:15:07;;;;;;;13.90;4.70;;;;;;;32.35;100.00;98824.83;109457;1251;62184;-75
2023/08/28 09:17:41;;;;;;;8.40;4.30;;;;;;;32.36;100.00;98821.83;109388;1253;62446;-74
2023/08/28 09:20:13;;;;;;;14.40;4.90;;;;;;;32.38;100.00;98823.58;109415;1251;59032;-73
2023/08/28 09:22:48;;;;;;;16.70;5.00;;;;;;;32.45;100.00;98820.34;109370;1251;59207;-73
2023/08/28 09:25:24;;;;;;;16.90;4.80;;;;;;;32.52;100.00;98818.05;109421;1252;65742;-74
2023/08/28 09:27:53;;;;;;;13.40;5.50;;;;;;;32.65;100.00;98820.36;109416;1256;62222;-73
2023/08/28 09:30:29;;;;;;;13.70;4.70;;;;;;;32.81;100.00;98819.07;109413;1251;62692;-73
2023/08/28 09:32:58;;;;;;;18.00;5.50;;;;;;;33.01;100.00;98823.14;109388;1251;59459;-74
2023/08/28 09:35:27;;;;;;;12.90;4.90;;;;;;;33.18;100.00;98821.85;109456;1251;58929;-74
2023/08/28 09:37:58;;;;;;;15.30;5.10;;;;;;;33.31;100.00;98818.39;109449;1251;65809;-75
2023/08/28 09:40:30;;;;;;;14.50;4.70;;;;;;;33.42;100.00;98819.59;109439;1251;60933;-74
2023/08/28 09:42:58;;;;;;;20.90;4.80;;;;;;;33.54;100.00;98811.71;109413;1251;63842;-74
2023/08/28 09:45:31;;;;;;;14.70;6.90;;;;;;;33.66;100.00;98806.10;109387;1256;59039;-74
2023/08/28 09:47:58;;;;;;;10.70;4.70;;;;;;;33.75;100.00;98800.67;109314;1251;59382;-75
2023/08/28 09:50:29;;;;;;;13.00;4.80;;;;;;;33.85;100.00;98793.59;109458;1251;65710;-74
2023/08/28 09:53:15;;;;;;;13.00;4.10;;;;;;;33.98;100.00;98794.83;109458;1251;62532;-75
2023/08/28 09:55:48;;;;;;;9.10;4.40;;;;;;;34.09;100.00;98791.04;109400;1251;62504;-74
2023/08/28 09:58:16;;;;;;;11.50;5.20;;;;;;;34.10;100.00;98788.94;109449;1251;59348;-74
2023/08/28 10:00:44;;;;;;;10.80;5.10;;;;;;;34.02;100.00;98795.52;109451;1252;59158;-75
2023/08/28 10:03:14;;;;;;;17.60;4.70;;;;;;;33.97;100.00;98797.91;109263;1251;66210;-75
2023/08/28 10:05:43;;;;;;;10.90;4.50;;;;;;;34.03;100.00;98795.00;109456;1251;61047;-75
2023/08/28 10:08:12;;;;;;;10.30;4.60;;;;;;;34.14;100.00;98790.21;109384;1251;62444;-75
2023/08/28 10:10:47;;;;;;;8.40;4.20;;;;;;;34.17;100.00;98792.98;109402;1251;59128;-74
2023/08/28 10:13:15;;;;;;;8.30;3.80;;;;;;;34.20;100.00;98794.61;109445;1251;59152;-75
2023/08/28 10:15:49;;;;;;;12.40;4.80;;;;;;;34.24;100.00;98798.59;109419;1251;65784;-74
2023/08/28 10:18:26;;;;;;;12.00;4.70;;;;;;;34.29;98.78;98800.55;109412;1251;61023;-75
2023/08/28 10:20:54;;;;;;;7.80;4.60;;;;;;;34.24;98.13;98795.68;109410;1256;63760;-74
2023/08/28 10:23:21;;;;;;;7.70;4.00;;;;;;;34.21;100.00;98795.03;109435;1251;59398;-74
2023/08/28 10:25:50;;;;;;;14.80;4.50;;;;;;;34.25;100.00;98798.23;109429;1251;59062;-75
2023/08/28 10:28:18;;;;;;;12.30;4.20;;;;;;;34.36;100.00;98800.27;109232;1256;64445;-75
2023/08/28 10:30:46;;;;;;;14.10;4.40;;;;;;;34.49;100.00;98794.42;109464;1251;61050;-75
2023/08/28 10:33:13;;;;;;;10.50;4.50;;;;;;;34.63;100.00;98794.09;109424;1253;62430;-74
2023/08/28 10:35:44;;;;;;;15.10;5.10;;;;;;;34.78;100.00;98793.80;109369;1251;59335;-74
2023/08/28 10:38:12;;;;;;;10.70;4.10;;;;;;;34.94;100.00;98792.63;109432;1252;58989;-73
2023/08/28 10:40:39;;;;;;;12.90;4.40;;;;;;;35.08;99.32;98786.64;109411;1251;64505;-74
2023/08/28 10:43:08;;;;;;;10.90;4.20;;;;;;;35.24;100.00;98787.42;109411;1251;60958;-74
2023/08/28 10:45:36;;;;;;;20.40;4.40;;;;;;;35.40;98.06;98788.14;109397;1253;63863;-75
2023/08/28 10:48:05;;;;;;;15.90;4.20;;;;;;;35.52;92.49;98783.19;109373;1251;59027;-75
2023/08/28 10:50:36;;;;;;;13.10;4.80;;;;;;;35.60;86.45;98778.95;109207;1251;59893;-74
2023/08/28 10:53:05;;;;;;;8.20;4.40;;;;;;;35.69;91.29;98777.33;109406;1251;64589;-74
2023/08/28 10:55:34;;;;;;;9.50;3.90;;;;;;;35.84;95.58;98770.17;109438;1251;60913;-75
2023/08/28 10:58:04;;;;;;;10.20;4.50;;;;;;;36.02;91.43;98768.95;109424;1251;63763;-75
2023/08/28 11:00:34;;;;;;;9.00;5.00;;;;;;;36.17;81.35;98770.38;109387;1251;59093;-75
2023/08/28 11:03:08;;;;;;;9.50;4.20;;;;;;;36.19;64.94;98763.85;109404;1251;58953;-73
2023/08/28 11:05:38;;;;;;;13.30;4.40;;;;;;;36.16;64.24;98756.75;109426;1251;64441;-75
2023/08/28 11:08:07;;;;;;;14.10;4.60;;;;;;;36.10;62.69;98755.36;109401;1251;61034;-75
2023/08/28 11:10:35;;;;;;;8.50;4.00;;;;;;;36.04;68.33;98753.59;109316;1251;63943;-75
2023/08/28 11:13:07;;;;;;;10.30;4.20;;;;;;;36.11;73.44;98752.58;109386;1251;59309;-75
2023/08/28 11:15:38;;;;;;;13.10;5.00;;;;;;;36.22;66.33;98755.67;109441;1251;58973;-74
2023/08/28 11:18:23;;;;;;;7.60;4.50;;;;;;;36.30;65.55;98753.64;109424;1251;64421;-75